Time;durP1;ratioP1;P1;durP2;ratioP2;P2;SDS_P1;SDS_P2;PMS_P1;PMS_P2;Temp;Humidity;BMP_temperature;BMP_pressure;BME280_temperature;BME280_humidity;BME280_pressure;Samples;Min_cycle;Max_cycle;Signal;HPM_P1;HPM_P2
2023/06/21 00:04:40;;;;;;;8.88;6.38;;;20.50;99.90;;;;;;12399028;28;20141;-38
2023/06/21 00:10:44;;;;;;;8.38;6.50;;;20.40;99.90;;;;;;12402853;28;20046;-39
2023/06/21 00:16:46;;;;;;;11.00;6.43;;;20.40;99.90;;;;;;12404287;28;20054;-39
2023/06/21 00:22:55;;;;;;;9.70;7.05;;;20.30;99.90;;;;;;12427151;28;20057;-38
2023/06/21 00:28:57;;;;;;;11.82;7.70;;;20.30;99.90;;;;;;12410713;28;20058;-38
2023/06/21 00:34:59;;;;;;;7.80;6.72;;;20.40;99.90;;;;;;12427474;28;20132;-38
2023/06/21 00:41:07;;;;;;;9.05;8.00;;;20.20;99.90;;;;;;12414960;28;20076;-39
2023/06/21 00:47:09;;;;;;;9.63;7.68;;;20.20;99.90;;;;;;12417235;28;20524;-39
2023/06/21 00:53:11;;;;;;;14.25;7.93;;;20.20;99.90;;;;;;12405584;28;20049;-38
2023/06/21 00:59:13;;;;;;;9.93;7.72;;;20.10;99.90;;;;;;12417503;28;20049;-39
2023/06/21 01:05:16;;;;;;;9.38;8.35;;;20.10;99.90;;;;;;12407387;28;20073;-39
2023/06/21 01:11:26;;;;;;;12.17;9.17;;;20.10;99.90;;;;;;12412781;28;20057;-38
2023/06/21 01:17:34;;;;;;;9.85;8.82;;;20.10;99.90;;;;;;12409770;28;20070;-38
2023/06/21 01:23:59;;;;;;;11.23;9.50;;;20.20;99.90;;;;;;12403100;28;20047;-40
2023/06/21 01:30:03;;;;;;;12.43;9.40;;;20.10;99.90;;;;;;12412245;28;20045;-38
2023/06/21 01:36:05;;;;;;;11.57;9.13;;;20.00;99.90;;;;;;12413463;28;20137;-38
2023/06/21 01:42:07;;;;;;;14.53;10.60;;;19.90;99.90;;;;;;12427456;28;20124;-39
2023/06/21 01:48:10;;;;;;;12.68;10.48;;;19.80;99.90;;;;;;12426749;28;20061;-38
2023/06/21 01:54:15;;;;;;;13.50;10.70;;;19.70;99.90;;;;;;12404196;28;20038;-38
2023/06/21 02:00:19;;;;;;;14.70;11.30;;;19.70;99.90;;;;;;12420752;28;20207;-39
2023/06/21 02:06:26;;;;;;;15.27;10.38;;;19.60;99.90;;;;;;12420619;28;20050;-38
2023/06/21 02:12:34;;;;;;;14.75;11.13;;;19.60;99.90;;;;;;12410770;28;20050;-38
2023/06/21 02:18:36;;;;;;;17.05;10.73;;;19.60;99.90;;;;;;12400795;28;20485;-39
2023/06/21 02:24:38;;;;;;;14.90;10.48;;;19.50;99.90;;;;;;12420693;28;20049;-38
2023/06/21 02:30:40;;;;;;;18.77;11.10;;;19.60;99.90;;;;;;12412212;28;20086;-39
2023/06/21 02:36:42;;;;;;;14.50;11.35;;;19.50;99.90;;;;;;12412439;28;20057;-39
2023/06/21 02:42:44;;;;;;;14.52;10.95;;;19.60;99.90;;;;;;12409136;28;20208;-38
2023/06/21 02:48:46;;;;;;;15.40;11.23;;;19.60;99.90;;;;;;12407999;28;20042;-38
2023/06/21 02:54:48;;;;;;;14.73;10.85;;;19.50;99.90;;;;;;12407519;28;20046;-38
2023/06/21 03:00:50;;;;;;;13.63;11.10;;;19.50;99.90;;;;;;12415908;28;20081;-39
2023/06/21 03:06:52;;;;;;;17.33;12.13;;;19.60;99.90;;;;;;12404570;28;20487;-39
2023/06/21 03:12:54;;;;;;;16.00;11.60;;;19.60;99.90;;;;;;12430386;28;20049;-38
2023/06/21 03:18:56;;;;;;;15.93;11.45;;;19.70;99.90;;;;;;12407975;28;20805;-37
2023/06/21 03:24:58;;;;;;;13.88;11.52;;;19.60;99.90;;;;;;12379689;28;20147;-39
2023/06/21 03:31:00;;;;;;;13.77;11.10;;;19.50;99.90;;;;;;12413905;28;20065;-39
2023/06/21 03:37:02;;;;;;;13.75;11.35;;;19.40;99.90;;;;;;12423950;28;20046;-38
2023/06/21 03:43:04;;;;;;;17.92;11.90;;;19.30;99.90;;;;;;12424426;28;20053;-38
2023/06/21 03:49:06;;;;;;;16.05;12.07;;;19.20;99.90;;;;;;12414182;28;20758;-38
2023/06/21 03:55:08;;;;;;;15.65;12.30;;;19.10;99.90;;;;;;12427916;28;20053;-38
2023/06/21 04:01:10;;;;;;;18.50;13.23;;;19.00;99.90;;;;;;12412011;28;20410;-38
2023/06/21 04:07:12;;;;;;;18.00;12.65;;;19.10;99.90;;;;;;12408714;28;20130;-38
2023/06/21 04:13:14;;;;;;;15.48;13.57;;;19.10;99.90;;;;;;12419037;28;20641;-38
2023/06/21 04:19:16;;;;;;;18.13;13.20;;;19.10;99.90;;;;;;12421658;28;20467;-39
2023/06/21 04:25:18;;;;;;;21.70;13.88;;;19.20;99.90;;;;;;12423160;28;20117;-39
2023/06/21 04:31:20;;;;;;;19.25;13.13;;;19.30;99.90;;;;;;12424746;28;20514;-38
2023/06/21 04:37:23;;;;;;;16.27;11.95;;;19.20;99.90;;;;;;12403851;28;20128;-38
2023/06/21 04:43:27;;;;;;;16.77;13.23;;;19.20;99.90;;;;;;12423705;28;20062;-39
2023/06/21 04:49:30;;;;;;;17.80;13.48;;;19.60;99.90;;;;;;12408388;28;20080;-37
2023/06/21 04:55:32;;;;;;;18.13;12.87;;;20.00;99.90;;;;;;12427493;28;20042;-38
2023/06/21 05:01:34;;;;;;;19.10;15.00;;;20.00;99.90;;;;;;12388149;28;20403;-38
2023/06/21 05:07:38;;;;;;;21.75;15.90;;;20.10;99.90;;;;;;12414076;28;20070;-38
2023/06/21 05:13:41;;;;;;;24.02;16.67;;;20.00;99.90;;;;;;12397490;28;20616;-38
2023/06/21 05:19:43;;;;;;;25.33;17.80;;;19.90;99.90;;;;;;12399063;28;20131;-38
2023/06/21 05:25:45;;;;;;;24.38;17.35;;;19.70;99.90;;;;;;12406002;28;20133;-38
2023/06/21 05:31:48;;;;;;;22.45;15.80;;;19.70;99.90;;;;;;12407145;28;20058;-38
2023/06/21 05:37:52;;;;;;;28.10;18.00;;;19.90;99.90;;;;;;12414816;28;20061;-40
2023/06/21 05:43:54;;;;;;;22.48;16.25;;;19.80;99.90;;;;;;12426664;28;20135;-40
2023/06/21 05:49:56;;;;;;;19.65;15.40;;;19.90;99.90;;;;;;12409910;28;20046;-39
2023/06/21 05:55:59;;;;;;;21.02;14.95;;;19.90;99.90;;;;;;12408905;28;20426;-38
2023/06/21 06:02:01;;;;;;;20.33;13.60;;;20.10;99.90;;;;;;12429366;28;20061;-39
2023/06/21 06:08:03;;;;;;;17.95;13.68;;;20.10;99.90;;;;;;12408057;28;20042;-39
2023/06/21 06:14:05;;;;;;;19.05;15.02;;;20.10;99.90;;;;;;12397989;28;20047;-38
2023/06/21 06:20:08;;;;;;;19.65;14.50;;;19.90;99.90;;;;;;12408181;28;20097;-38
2023/06/21 06:26:10;;;;;;;23.80;17.02;;;19.70;99.90;;;;;;12349582;28;20077;-39
2023/06/21 06:32:11;;;;;;;17.42;15.43;;;19.60;99.90;;;;;;12410025;28;20616;-37
2023/06/21 06:38:14;;;;;;;17.48;15.07;;;20.00;99.90;;;;;;12399822;28;20054;-39
2023/06/21 06:44:16;;;;;;;26.55;23.75;;;20.30;99.90;;;;;;12410498;28;20046;-37
2023/06/21 06:50:18;;;;;;;29.98;26.90;;;20.10;99.90;;;;;;12414127;28;20046;-39
2023/06/21 06:56:20;;;;;;;28.58;25.58;;;20.10;99.90;;;;;;12422354;28;20084;-38
2023/06/21 07:02:22;;;;;;;29.55;26.45;;;20.20;99.90;;;;;;12419094;28;20621;-38
2023/06/21 07:08:25;;;;;;;31.23;28.05;;;20.30;99.90;;;;;;12415893;28;20046;-38
2023/06/21 07:14:27;;;;;;;29.90;26.85;;;20.50;99.90;;;;;;12399749;28;20426;-38
2023/06/21 07:20:30;;;;;;;28.70;25.63;;;20.70;99.90;;;;;;12406577;28;20509;-39
2023/06/21 07:26:33;;;;;;;24.42;21.88;;;20.90;99.90;;;;;;12418380;28;20065;-38
2023/06/21 07:32:35;;;;;;;25.52;22.92;;;21.10;99.90;;;;;;12426686;28;20144;-39
2023/06/21 07:38:37;;;;;;;23.55;20.52;;;21.20;99.90;;;;;;12411217;28;20046;-38
2023/06/21 07:44:39;;;;;;;23.35;20.92;;;21.30;99.90;;;;;;12423001;28;20513;-38
2023/06/21 07:50:41;;;;;;;22.33;20.13;;;21.20;99.90;;;;;;12411117;28;20113;-40
2023/06/21 07:56:44;;;;;;;22.70;20.30;;;21.30;99.90;;;;;;12423951;28;20049;-38
2023/06/21 08:02:49;;;;;;;21.50;19.27;;;21.10;99.90;;;;;;12420951;28;20077;-38
2023/06/21 08:08:51;;;;;;;20.13;18.10;;;21.10;99.90;;;;;;12406722;28;20053;-38
2023/06/21 08:14:53;;;;;;;22.52;18.83;;;21.10;99.90;;;;;;12421101;28;20041;-38
2023/06/21 08:20:55;;;;;;;20.45;17.83;;;21.40;99.90;;;;;;12416260;28;20735;-39
2023/06/21 08:26:57;;;;;;;19.20;14.95;;;21.70;99.90;;;;;;12411438;28;20057;-40
2023/06/21 08:32:59;;;;;;;16.27;14.57;;;21.90;99.90;;;;;;12413320;28;20054;-39
2023/06/21 08:39:01;;;;;;;15.02;12.45;;;22.10;99.90;;;;;;12423816;28;20053;-40
2023/06/21 08:45:03;;;;;;;15.38;12.68;;;21.90;99.90;;;;;;12423628;28;20073;-39
2023/06/21 08:51:06;;;;;;;15.23;13.63;;;21.90;99.90;;;;;;12400854;28;20082;-38
2023/06/21 08:57:20;;;;;;;12.48;11.27;;;21.90;99.90;;;;;;12419601;28;20058;-39
2023/06/21 09:03:58;;;;;;;12.30;10.65;;;22.30;99.90;;;;;;12410653;28;20054;-38
2023/06/21 09:10:03;;;;;;;11.70;10.50;;;22.60;99.90;;;;;;12396511;28;20061;-39
2023/06/21 09:16:06;;;;;;;10.52;9.43;;;22.60;99.90;;;;;;12408158;28;20096;-40
2023/06/21 09:22:09;;;;;;;14.10;9.80;;;22.80;99.90;;;;;;12407287;28;20374;-38
2023/06/21 09:28:12;;;;;;;10.50;9.40;;;22.90;99.90;;;;;;12407962;28;20060;-39
2023/06/21 09:34:14;;;;;;;13.10;9.40;;;23.20;99.90;;;;;;12422174;28;20073;-39
2023/06/21 09:40:16;;;;;;;9.50;7.88;;;23.90;99.90;;;;;;12431701;28;20076;-40
2023/06/21 09:46:18;;;;;;;13.10;8.30;;;23.60;99.90;;;;;;12416277;28;20050;-39
2023/06/21 09:52:22;;;;;;;8.38;7.35;;;23.90;99.90;;;;;;12399229;28;20042;-40
2023/06/21 09:58:24;;;;;;;7.60;6.60;;;24.20;99.90;;;;;;12401672;28;20069;-40
2023/06/21 10:04:26;;;;;;;10.23;7.53;;;24.60;99.90;;;;;;12409451;28;20580;-40
2023/06/21 10:10:31;;;;;;;8.57;6.65;;;24.30;99.90;;;;;;12424169;28;20046;-40
2023/06/21 10:16:35;;;;;;;8.68;6.72;;;24.20;99.90;;;;;;12398103;28;20444;-39
2023/06/21 10:22:40;;;;;;;7.47;6.20;;;23.90;99.90;;;;;;12434019;28;20054;-40
2023/06/21 10:28:45;;;;;;;8.05;6.90;;;23.90;99.90;;;;;;12404728;28;20041;-40
2023/06/21 10:35:19;;;;;;;7.03;5.97;;;23.60;99.90;;;;;;12393992;28;20150;-40
2023/06/21 10:41:22;;;;;;;8.98;6.65;;;23.90;99.90;;;;;;12411758;28;20058;-40
2023/06/21 10:47:25;;;;;;;7.88;6.60;;;24.30;99.90;;;;;;12403172;28;20085;-41
2023/06/21 10:53:35;;;;;;;8.10;5.65;;;25.00;99.90;;;;;;12395277;28;20054;-40
2023/06/21 10:59:37;;;;;;;6.72;5.47;;;25.40;99.90;;;;;;12398347;28;20046;-41
2023/06/21 11:05:40;;;;;;;10.25;5.88;;;25.20;99.90;;;;;;12399214;28;20412;-39
2023/06/21 11:11:53;;;;;;;7.80;5.80;;;25.40;99.90;;;;;;12404009;28;20053;-40
2023/06/21 11:17:59;;;;;;;6.22;4.95;;;25.40;99.90;;;;;;12434433;28;20060;-40
2023/06/21 11:24:16;;;;;;;6.25;5.05;;;25.20;99.90;;;;;;12418360;28;20046;-40
2023/06/21 11:30:18;;;;;;;7.32;5.45;;;24.60;99.90;;;;;;12414646;28;20086;-40
2023/06/21 11:36:32;;;;;;;7.30;5.77;;;24.80;99.90;;;;;;12413100;28;20383;-40
2023/06/21 11:42:37;;;;;;;11.93;5.53;;;25.20;99.90;;;;;;12401501;28;20285;-40
2023/06/21 11:48:39;;;;;;;7.25;4.72;;;25.10;99.90;;;;;;12404104;28;20043;-40
2023/06/21 11:54:41;;;;;;;7.53;5.15;;;25.60;99.90;;;;;;12410588;28;20305;-41
2023/06/21 12:00:47;;;;;;;6.78;5.55;;;25.80;99.90;;;;;;12420010;28;20076;-40
2023/06/21 12:06:49;;;;;;;6.82;5.40;;;26.10;99.90;;;;;;12402000;28;20054;-40
2023/06/21 12:12:51;;;;;;;6.33;4.87;;;26.50;99.90;;;;;;12402660;28;20049;-40
2023/06/21 12:18:53;;;;;;;5.23;4.50;;;26.70;99.90;;;;;;12420209;28;20050;-40
2023/06/21 12:24:55;;;;;;;5.77;4.50;;;26.50;99.90;;;;;;12409202;28;20429;-40
2023/06/21 12:31:00;;;;;;;7.00;3.90;;;26.50;99.90;;;;;;12415226;28;20538;-39
2023/06/21 12:37:03;;;;;;;6.75;4.80;;;25.90;99.90;;;;;;12423622;28;20085;-40
2023/06/21 12:43:05;;;;;;;6.63;5.60;;;26.20;99.90;;;;;;12408302;28;20450;-39
2023/06/21 12:49:07;;;;;;;5.70;4.55;;;26.30;99.90;;;;;;12436626;28;20054;-40
2023/06/21 12:55:15;;;;;;;6.63;5.33;;;26.00;99.90;;;;;;12412660;28;20038;-40
2023/06/21 13:01:17;;;;;;;10.07;5.30;;;26.20;99.90;;;;;;12391922;28;20133;-39
2023/06/21 13:07:19;;;;;;;6.90;5.00;;;26.00;99.90;;;;;;12413819;28;20050;-40
2023/06/21 13:13:24;;;;;;;5.90;4.87;;;26.10;99.90;;;;;;12404971;28;20173;-40
2023/06/21 13:19:25;;;;;;;5.28;4.78;;;26.30;99.90;;;;;;12424456;28;20518;-39
2023/06/21 13:25:28;;;;;;;8.47;4.90;;;25.90;99.90;;;;;;12412153;28;20421;-40
2023/06/21 13:31:30;;;;;;;6.05;5.30;;;25.80;99.90;;;;;;12424207;28;20049;-39
2023/06/21 13:37:32;;;;;;;7.90;5.47;;;25.60;99.90;;;;;;12403424;28;20060;-39
2023/06/21 13:43:34;;;;;;;6.03;4.93;;;25.90;99.90;;;;;;12422298;28;20054;-39
2023/06/21 13:49:36;;;;;;;7.77;5.40;;;25.60;99.90;;;;;;12411711;28;20046;-40
2023/06/21 13:55:38;;;;;;;8.20;5.70;;;25.40;99.90;;;;;;12410775;28;20047;-40
2023/06/21 14:01:40;;;;;;;8.30;5.80;;;25.60;99.90;;;;;;12436116;28;20046;-39
2023/06/21 14:07:44;;;;;;;5.68;4.88;;;25.80;99.90;;;;;;12394058;28;20121;-39
2023/06/21 14:13:46;;;;;;;7.13;5.30;;;25.70;99.90;;;;;;12405704;28;20042;-39
2023/06/21 14:19:48;;;;;;;5.88;4.57;;;25.50;99.90;;;;;;12416305;28;21073;-40
2023/06/21 14:25:50;;;;;;;6.57;4.80;;;25.40;99.90;;;;;;12396160;28;20042;-40
2023/06/21 14:31:52;;;;;;;15.40;5.15;;;25.30;99.90;;;;;;12412156;28;20103;-40
2023/06/21 14:37:54;;;;;;;8.40;4.75;;;25.40;99.90;;;;;;12410404;28;20057;-40
2023/06/21 14:43:56;;;;;;;8.47;4.50;;;25.40;99.90;;;;;;12406826;28;20049;-39
2023/06/21 14:49:58;;;;;;;5.60;4.63;;;25.30;99.90;;;;;;12402230;28;20057;-40
2023/06/21 14:56:00;;;;;;;7.90;4.95;;;25.20;99.90;;;;;;12401641;28;20051;-40
2023/06/21 15:02:02;;;;;;;7.35;5.15;;;25.30;99.90;;;;;;12408609;28;20049;-40
2023/06/21 15:08:04;;;;;;;6.43;4.63;;;25.80;99.90;;;;;;12390799;28;20045;-40
2023/06/21 15:14:06;;;;;;;5.40;4.30;;;25.90;99.90;;;;;;12391623;28;20049;-38
2023/06/21 15:20:08;;;;;;;8.98;4.68;;;25.90;99.90;;;;;;12411386;28;20100;-40
2023/06/21 15:26:10;;;;;;;5.83;3.90;;;25.80;99.90;;;;;;12394289;28;20506;-40
2023/06/21 15:32:13;;;;;;;6.20;4.80;;;25.70;99.90;;;;;;12424387;28;20495;-40
2023/06/21 15:38:15;;;;;;;5.53;4.35;;;25.80;99.90;;;;;;12402227;28;20395;-39
2023/06/21 15:44:17;;;;;;;5.40;4.17;;;26.00;99.90;;;;;;12407007;28;20080;-39
2023/06/21 15:50:19;;;;;;;4.77;4.27;;;26.10;99.90;;;;;;12413129;28;20050;-39
2023/06/21 15:56:22;;;;;;;7.15;4.57;;;25.80;99.90;;;;;;12424613;28;20517;-40
2023/06/21 16:02:24;;;;;;;6.60;4.32;;;25.50;99.90;;;;;;12417115;28;20061;-40
2023/06/21 16:08:26;;;;;;;5.00;4.28;;;25.60;99.90;;;;;;12423651;28;20081;-40
2023/06/21 16:14:28;;;;;;;4.78;3.70;;;25.40;99.90;;;;;;12408589;28;20050;-40
2023/06/21 16:20:30;;;;;;;6.18;4.40;;;25.50;99.90;;;;;;12420104;28;20057;-40
2023/06/21 16:26:32;;;;;;;6.30;4.40;;;25.60;99.90;;;;;;12414512;28;20498;-39
2023/06/21 16:32:34;;;;;;;5.70;4.70;;;26.00;99.90;;;;;;12413140;28;20073;-39
2023/06/21 16:38:37;;;;;;;5.90;4.77;;;25.90;99.90;;;;;;12410269;28;20124;-40
2023/06/21 16:44:39;;;;;;;6.43;4.78;;;25.60;99.90;;;;;;12405918;28;20498;-40
2023/06/21 16:50:40;;;;;;;6.45;4.57;;;25.50;99.90;;;;;;12401916;28;20174;-41
2023/06/21 16:56:42;;;;;;;4.90;4.40;;;25.70;99.90;;;;;;12418064;28;20042;-39
2023/06/21 17:02:44;;;;;;;6.05;4.35;;;26.10;99.90;;;;;;12416560;28;20042;-40
2023/06/21 17:08:46;;;;;;;5.73;4.47;;;26.30;99.90;;;;;;12416481;28;20045;-41
2023/06/21 17:14:48;;;;;;;4.17;3.73;;;26.40;99.90;;;;;;12411444;28;20074;-40
2023/06/21 17:20:50;;;;;;;4.83;4.03;;;26.70;99.90;;;;;;12410097;28;20081;-39
2023/06/21 17:26:52;;;;;;;6.53;5.00;;;26.60;99.90;;;;;;12404376;28;20060;-39
2023/06/21 17:32:54;;;;;;;5.07;4.00;;;26.40;99.90;;;;;;12432499;28;20076;-38
2023/06/21 17:38:56;;;;;;;4.60;3.88;;;26.80;99.90;;;;;;12413089;28;20061;-39
2023/06/21 17:44:58;;;;;;;5.73;3.73;;;27.10;99.90;;;;;;12416734;28;20456;-39
2023/06/21 17:51:00;;;;;;;4.97;4.00;;;27.10;99.90;;;;;;12408155;28;20050;-39
2023/06/21 17:57:02;;;;;;;6.30;3.87;;;27.50;99.90;;;;;;12398512;28;20170;-39
2023/06/21 18:03:04;;;;;;;4.88;4.25;;;28.00;99.90;;;;;;12414068;28;20042;-39
2023/06/21 18:09:07;;;;;;;5.72;4.60;;;28.20;99.90;;;;;;12373256;28;20054;-39
2023/06/21 18:15:09;;;;;;;6.13;4.70;;;27.90;99.90;;;;;;12397768;28;20537;-39
2023/06/21 18:21:11;;;;;;;5.57;4.30;;;27.40;99.90;;;;;;12409070;28;20738;-39
2023/06/21 18:27:13;;;;;;;6.47;5.30;;;26.90;99.90;;;;;;12407072;28;20120;-40
2023/06/21 18:33:15;;;;;;;5.97;4.93;;;26.10;99.90;;;;;;12407332;28;20487;-40
2023/06/21 18:39:17;;;;;;;9.70;5.60;;;25.90;99.90;;;;;;12409558;28;20125;-39
2023/06/21 18:45:19;;;;;;;6.70;5.30;;;25.60;99.90;;;;;;12416281;28;20537;-39
2023/06/21 18:51:24;;;;;;;6.00;4.97;;;25.50;99.90;;;;;;12394900;28;20058;-41
2023/06/21 18:57:26;;;;;;;6.05;4.78;;;25.30;99.90;;;;;;12399009;28;20147;-40
2023/06/21 19:03:28;;;;;;;7.38;5.35;;;25.00;99.90;;;;;;12414241;28;20060;-38
2023/06/21 19:09:30;;;;;;;7.55;5.88;;;24.90;99.90;;;;;;12418929;28;20049;-39
2023/06/21 19:15:32;;;;;;;7.00;5.70;;;24.60;99.90;;;;;;12413486;28;20069;-38
2023/06/21 19:21:36;;;;;;;6.65;5.28;;;24.30;99.90;;;;;;12411126;28;20046;-38
2023/06/21 19:27:40;;;;;;;6.72;5.35;;;24.20;99.90;;;;;;12403336;28;20065;-37
2023/06/21 19:33:42;;;;;;;7.28;5.70;;;24.00;99.90;;;;;;12402207;28;20513;-39
2023/06/21 19:39:44;;;;;;;7.32;5.43;;;23.90;99.90;;;;;;12410792;28;20125;-38
2023/06/21 19:45:46;;;;;;;8.02;5.88;;;23.60;99.90;;;;;;12411636;28;21059;-38
2023/06/21 19:51:48;;;;;;;7.82;5.07;;;23.50;99.90;;;;;;12418649;28;20467;-38
2023/06/21 19:57:50;;;;;;;8.75;5.82;;;23.40;99.90;;;;;;12427786;28;20050;-38
2023/06/21 20:03:52;;;;;;;7.60;5.53;;;23.30;99.90;;;;;;12424813;28;20065;-38
2023/06/21 20:09:54;;;;;;;6.97;6.28;;;23.00;99.90;;;;;;12424677;28;20049;-38
2023/06/21 20:15:56;;;;;;;8.07;6.45;;;22.90;99.90;;;;;;12420417;28;20049;-39
2023/06/21 20:21:58;;;;;;;8.45;5.88;;;22.70;99.90;;;;;;12411225;28;20054;-40
2023/06/21 20:28:00;;;;;;;6.85;5.63;;;22.50;99.90;;;;;;12434925;28;20046;-39
2023/06/21 20:34:02;;;;;;;7.35;6.10;;;22.50;99.90;;;;;;12408123;28;20069;-39
2023/06/21 20:40:06;;;;;;;6.72;6.00;;;22.40;99.90;;;;;;12417396;28;20572;-39
2023/06/21 20:46:11;;;;;;;7.10;6.40;;;22.20;99.90;;;;;;12403752;28;20148;-40
2023/06/21 20:52:13;;;;;;;7.00;6.07;;;22.10;99.90;;;;;;12411683;28;20091;-39
2023/06/21 20:58:15;;;;;;;6.78;6.07;;;22.00;99.90;;;;;;12407050;28;20053;-39
2023/06/21 21:04:17;;;;;;;7.65;5.90;;;22.00;99.90;;;;;;12410540;28;20054;-39
2023/06/21 21:10:19;;;;;;;7.28;5.80;;;21.90;99.90;;;;;;12395160;28;20054;-38
2023/06/21 21:16:22;;;;;;;7.50;6.25;;;21.80;99.90;;;;;;12409433;28;20046;-39
2023/06/21 21:22:24;;;;;;;8.67;6.77;;;21.70;99.90;;;;;;12414340;28;20053;-38
2023/06/21 21:28:26;;;;;;;9.75;7.00;;;21.60;99.90;;;;;;12407227;28;20384;-38
2023/06/21 21:34:29;;;;;;;7.53;6.72;;;21.40;99.90;;;;;;12426474;28;20053;-38
2023/06/21 21:40:32;;;;;;;8.75;6.43;;;21.10;99.90;;;;;;12420668;28;20047;-38
2023/06/21 21:46:34;;;;;;;8.63;6.97;;;20.90;99.90;;;;;;12399918;28;20053;-38
2023/06/21 21:52:36;;;;;;;7.78;6.47;;;20.90;99.90;;;;;;12406227;28;20092;-40
2023/06/21 21:58:38;;;;;;;7.78;6.88;;;20.90;99.90;;;;;;12398981;28;20061;-38
2023/06/21 22:04:41;;;;;;;10.13;6.53;;;20.90;99.90;;;;;;12408773;28;20070;-39
2023/06/21 22:10:43;;;;;;;;;;;20.70;99.90;;;;;;12408453;28;20044;-38
2023/06/21 22:16:49;;;;;;;9.73;6.95;;;20.70;99.90;;;;;;12427559;28;20137;-39
2023/06/21 22:22:51;;;;;;;9.90;7.45;;;20.70;99.90;;;;;;12408566;28;20554;-38
2023/06/21 22:28:53;;;;;;;9.60;8.05;;;20.70;99.90;;;;;;12422686;28;20054;-38
2023/06/21 22:34:57;;;;;;;7.85;6.85;;;20.70;99.90;;;;;;12401956;28;20046;-38
2023/06/21 22:40:59;;;;;;;8.40;7.18;;;20.70;99.90;;;;;;12420929;28;20058;-38
2023/06/21 22:47:01;;;;;;;7.82;6.35;;;20.80;99.90;;;;;;12419281;28;21302;-38
2023/06/21 22:53:03;;;;;;;10.20;7.85;;;20.70;99.90;;;;;;12418597;28;20046;-39
2023/06/21 22:59:05;;;;;;;10.43;8.53;;;20.40;99.90;;;;;;12406988;28;20080;-38
2023/06/21 23:05:08;;;;;;;9.27;7.57;;;20.20;99.90;;;;;;12420384;28;20053;-39
2023/06/21 23:11:24;;;;;;;9.50;8.18;;;20.20;99.90;;;;;;12407363;28;20046;-38
2023/06/21 23:17:26;;;;;;;8.20;7.15;;;20.20;99.90;;;;;;12397900;28;20045;-38
2023/06/21 23:23:29;;;;;;;11.35;8.65;;;20.10;99.90;;;;;;12396109;28;20046;-38
2023/06/21 23:29:31;;;;;;;9.95;8.63;;;20.30;99.90;;;;;;12418519;28;20090;-39
2023/06/21 23:35:37;;;;;;;10.32;8.00;;;20.30;99.90;;;;;;12387412;28;20129;-39
2023/06/21 23:41:39;;;;;;;11.50;8.48;;;20.00;99.90;;;;;;12411998;28;20054;-38
2023/06/21 23:47:42;;;;;;;12.23;8.80;;;20.00;99.90;;;;;;12409779;28;20388;-38
2023/06/21 23:53:44;;;;;;;12.27;9.00;;;20.00;99.90;;;;;;12425141;28;20049;-40
2023/06/21 23:59:46;;;;;;;10.55;8.85;;;20.00;99.90;;;;;;12399834;28;20129;-39
